Terminal Aerodrome Forecast
Issued by NWS

Home | Current Version | Previous Version | Text Only | Print | Product List | Glossary On
Versions: 1 2 3 4 5 6 7 8 9 10 11 12 13
000
FTUS43 KLSX 211725
TAFCPS
TAF
KCPS 211725Z 2118/2218 29011G18KT P6SM SCT140
     FM212000 33012G22KT P6SM BKN140
     FM220400 34010KT P6SM SKC
     FM220900 34006KT P6SM FEW250=

USA.gov is the U.S. government's official web portal to all federal, state and local government web resources and services.